Time,TemperatureF,DewpointF,PressureIn,WindDirection,WindDirectionDegrees,WindSpeedMPH,WindSpeedGustMPH,Humidity,HourlyPrecipIn,Conditions,Clouds,dailyrainin,SoftwareType,DateUTC
2013-10-12 00:14:00,46.6,33.4,29.93,WNW,292,2.7,-999.0,60,-99.99,,,0.00,Acu-Link.com,2013-10-12 06:14:00,
2013-10-12 00:30:00,46.6,33.4,29.93,NNW,337,3.1,-999.0,60,-99.99,,,0.00,Acu-Link.com,2013-10-12 06:30:00,
2013-10-12 00:45:00,46.8,33.6,29.93,West,270,2.2,-999.0,60,-99.99,,,0.00,Acu-Link.com,2013-10-12 06:45:00,
2013-10-12 01:03:00,46.4,33.3,29.94,West,270,2.7,-999.0,60,-99.99,,,0.00,Acu-Link.com,2013-10-12 07:03:00,
2013-10-12 01:18:00,46.0,33.4,29.94,West,270,2.7,-999.0,61,-99.99,,,0.00,Acu-Link.com,2013-10-12 07:18:00,
2013-10-12 01:35:00,45.9,33.2,29.93,West,270,4.3,-999.0,61,-99.99,,,0.00,Acu-Link.com,2013-10-12 07:35:00,
2013-10-12 01:50:00,45.9,33.2,29.94,WNW,292,2.2,-999.0,61,-99.99,,,0.00,Acu-Link.com,2013-10-12 07:50:00,
2013-10-12 02:05:00,45.7,33.0,29.94,NW,315,2.7,-999.0,61,-99.99,,,0.00,Acu-Link.com,2013-10-12 08:05:00,
2013-10-12 02:20:00,45.5,32.8,29.94,NNW,337,3.8,-999.0,61,-99.99,,,0.00,Acu-Link.com,2013-10-12 08:20:00,
2013-10-12 02:35:00,45.5,33.2,29.94,NNW,337,3.1,-999.0,62,-99.99,,,0.00,Acu-Link.com,2013-10-12 08:35:00,
2013-10-12 02:52:00,45.7,33.4,29.94,West,270,2.7,-999.0,62,-99.99,,,0.00,Acu-Link.com,2013-10-12 08:52:00,
2013-10-12 03:07:00,45.5,33.2,29.95,WNW,292,4.7,-999.0,62,-99.99,,,0.00,Acu-Link.com,2013-10-12 09:07:00,
2013-10-12 03:22:00,44.4,32.6,29.96,ESE,112,0.0,-999.0,63,-99.99,,,0.00,Acu-Link.com,2013-10-12 09:22:00,
2013-10-12 03:37:00,42.8,33.0,29.96,ENE,67,1.1,-999.0,68,-99.99,,,0.00,Acu-Link.com,2013-10-12 09:37:00,
2013-10-12 03:53:00,41.4,32.0,29.95,NW,315,2.2,-999.0,69,-99.99,,,0.00,Acu-Link.com,2013-10-12 09:53:00,
2013-10-12 04:08:00,41.4,32.0,29.95,WNW,292,0.0,-999.0,69,-99.99,,,0.00,Acu-Link.com,2013-10-12 10:08:00,
2013-10-12 04:23:00,40.8,32.2,29.95,NNW,337,1.1,-999.0,71,-99.99,,,0.00,Acu-Link.com,2013-10-12 10:23:00,
2013-10-12 04:38:00,40.5,32.2,29.96,NW,315,0.0,-999.0,72,-99.99,,,0.00,Acu-Link.com,2013-10-12 10:38:00,
2013-10-12 04:53:00,39.9,32.3,29.96,WNW,292,1.6,-999.0,74,-99.99,,,0.00,Acu-Link.com,2013-10-12 10:53:00,
2013-10-12 05:09:00,39.4,32.1,29.96,West,270,0.0,-999.0,75,-99.99,,,0.00,Acu-Link.com,2013-10-12 11:09:00,
2013-10-12 05:24:00,39.6,32.3,29.96,NNE,22,3.8,-999.0,75,-99.99,,,0.00,Acu-Link.com,2013-10-12 11:24:00,
2013-10-12 05:39:00,39.6,32.3,29.97,NNW,337,2.2,-999.0,75,-99.99,,,0.00,Acu-Link.com,2013-10-12 11:39:00,
2013-10-12 05:54:00,39.2,32.0,29.97,North,0,2.2,-999.0,75,-99.99,,,0.00,Acu-Link.com,2013-10-12 11:54:00,
2013-10-12 06:09:00,38.1,31.6,29.98,ENE,67,0.0,-999.0,77,-99.99,,,0.00,Acu-Link.com,2013-10-12 12:09:00,
2013-10-12 06:25:00,37.4,31.8,29.98,East,90,0.0,-999.0,80,-99.99,,,0.00,Acu-Link.com,2013-10-12 12:25:00,
2013-10-12 06:40:00,36.5,31.5,29.98,East,90,0.0,-999.0,82,-99.99,,,0.00,Acu-Link.com,2013-10-12 12:40:00,
2013-10-12 06:55:00,35.8,31.7,29.99,NNE,22,0.0,-999.0,85,-99.99,,,0.00,Acu-Link.com,2013-10-12 12:55:00,
2013-10-12 07:10:00,35.6,33.0,30.00,WNW,292,0.0,-999.0,90,-99.99,,,0.00,Acu-Link.com,2013-10-12 13:10:00,
2013-10-12 07:26:00,35.6,32.7,30.00,WNW,292,0.0,-999.0,89,-99.99,,,0.00,Acu-Link.com,2013-10-12 13:26:00,
2013-10-12 07:41:00,38.1,34.3,30.00,WNW,292,0.0,-999.0,86,-99.99,,,0.00,Acu-Link.com,2013-10-12 13:41:00,
2013-10-12 07:56:00,42.4,34.4,30.01,North,0,0.0,-999.0,73,-99.99,,,0.00,Acu-Link.com,2013-10-12 13:56:00,
2013-10-12 08:11:00,47.8,36.3,30.02,NNE,22,2.7,-999.0,64,-99.99,,,0.00,Acu-Link.com,2013-10-12 14:11:00,
2013-10-12 08:26:00,46.2,33.9,30.02,WNW,292,7.4,-999.0,62,-99.99,,,0.00,Acu-Link.com,2013-10-12 14:26:00,
2013-10-12 08:42:00,45.3,33.9,30.03,North,0,3.1,-999.0,64,-99.99,,,0.00,Acu-Link.com,2013-10-12 14:42:00,
2013-10-12 08:57:00,46.4,34.5,30.04,WNW,292,6.7,-999.0,63,-99.99,,,0.00,Acu-Link.com,2013-10-12 14:57:00,
2013-10-12 09:12:00,47.7,34.9,30.04,ENE,67,5.1,-999.0,61,-99.99,,,0.00,Acu-Link.com,2013-10-12 15:12:00,
2013-10-12 09:27:00,49.3,35.1,30.03,NNE,22,4.3,-999.0,58,-99.99,,,0.00,Acu-Link.com,2013-10-12 15:27:00,
2013-10-12 09:42:00,50.5,35.4,30.03,NNE,22,5.1,-999.0,56,-99.99,,,0.00,Acu-Link.com,2013-10-12 15:42:00,
2013-10-12 09:57:00,51.4,35.8,30.03,NE,45,3.1,-999.0,55,-99.99,,,0.00,Acu-Link.com,2013-10-12 15:57:00,
2013-10-12 10:13:00,52.2,35.6,30.03,NNE,22,4.3,-999.0,53,-99.99,,,0.00,Acu-Link.com,2013-10-12 16:13:00,
2013-10-12 10:28:00,54.1,36.4,30.03,NNE,22,4.3,-999.0,51,-99.99,,,0.00,Acu-Link.com,2013-10-12 16:28:00,
2013-10-12 10:43:00,54.5,34.7,30.03,West,270,2.7,-999.0,47,-99.99,,,0.00,Acu-Link.com,2013-10-12 16:43:00,
2013-10-12 10:58:00,56.3,35.8,30.03,ENE,67,4.7,-999.0,46,-99.99,,,0.00,Acu-Link.com,2013-10-12 16:58:00,
2013-10-12 11:14:00,58.1,35.7,30.03,NE,45,3.1,-999.0,43,-99.99,,,0.00,Acu-Link.com,2013-10-12 17:14:00,
2013-10-12 11:29:00,60.1,36.3,30.03,ENE,67,2.7,-999.0,41,-99.99,,,0.00,Acu-Link.com,2013-10-12 17:29:00,
2013-10-12 11:44:00,60.4,36.6,30.02,ESE,112,3.1,-999.0,41,-99.99,,,0.00,Acu-Link.com,2013-10-12 17:44:00,
2013-10-12 11:59:00,60.6,36.8,30.02,SSE,157,2.7,-999.0,41,-99.99,,,0.00,Acu-Link.com,2013-10-12 17:59:00,
2013-10-12 12:14:00,62.1,36.8,30.02,East,90,6.3,-999.0,39,-99.99,,,0.00,Acu-Link.com,2013-10-12 18:14:00,
2013-10-12 12:30:00,62.8,36.8,30.01,NE,45,5.1,-999.0,38,-99.99,,,0.00,Acu-Link.com,2013-10-12 18:30:00,
2013-10-12 12:45:00,62.6,37.3,29.99,SSW,202,3.8,-999.0,39,-99.99,,,0.00,Acu-Link.com,2013-10-12 18:45:00,
2013-10-12 13:00:00,63.7,36.9,29.99,SW,225,1.6,-999.0,37,-99.99,,,0.00,Acu-Link.com,2013-10-12 19:00:00,
2013-10-12 13:15:00,64.2,36.7,29.98,East,90,2.7,-999.0,36,-99.99,,,0.00,Acu-Link.com,2013-10-12 19:15:00,
2013-10-12 13:30:00,65.1,35.3,29.96,ESE,112,2.2,-999.0,33,-99.99,,,0.00,Acu-Link.com,2013-10-12 19:30:00,
2013-10-12 13:46:00,66.2,34.7,29.96,SSW,202,3.1,-999.0,31,-99.99,,,0.00,Acu-Link.com,2013-10-12 19:46:00,
2013-10-12 14:01:00,66.0,35.3,29.95,West,270,3.1,-999.0,32,-99.99,,,0.00,Acu-Link.com,2013-10-12 20:01:00,
2013-10-12 14:16:00,68.5,35.9,29.95,SSE,157,2.7,-999.0,30,-99.99,,,0.00,Acu-Link.com,2013-10-12 20:16:00,
2013-10-12 14:31:00,67.5,34.9,29.93,WNW,292,2.2,-999.0,30,-99.99,,,0.00,Acu-Link.com,2013-10-12 20:31:00,
2013-10-12 14:46:00,68.9,34.4,29.93,SSW,202,4.3,-999.0,28,-99.99,,,0.00,Acu-Link.com,2013-10-12 20:46:00,
2013-10-12 15:02:00,69.1,36.3,29.93,ESE,112,2.7,-999.0,30,-99.99,,,0.00,Acu-Link.com,2013-10-12 21:02:00,
2013-10-12 15:17:00,70.0,34.5,29.93,SW,225,2.2,-999.0,27,-99.99,,,0.00,Acu-Link.com,2013-10-12 21:17:00,
2013-10-12 15:32:00,68.0,34.6,29.92,South,180,5.1,-999.0,29,-99.99,,,0.00,Acu-Link.com,2013-10-12 21:32:00,
2013-10-12 15:47:00,70.5,35.8,29.91,South,180,2.7,-999.0,28,-99.99,,,0.00,Acu-Link.com,2013-10-12 21:47:00,
2013-10-12 16:02:00,70.0,34.5,29.91,SE,135,3.8,-999.0,27,-99.99,,,0.00,Acu-Link.com,2013-10-12 22:02:00,
2013-10-12 16:18:00,70.3,34.8,29.89,South,180,4.3,-999.0,27,-99.99,,,0.00,Acu-Link.com,2013-10-12 22:18:00,
2013-10-12 16:33:00,70.0,35.4,29.89,SSE,157,1.6,-999.0,28,-99.99,,,0.00,Acu-Link.com,2013-10-12 22:33:00,
2013-10-12 16:48:00,69.6,34.2,29.90,West,270,1.6,-999.0,27,-99.99,,,0.00,Acu-Link.com,2013-10-12 22:48:00,
2013-10-12 17:03:00,69.8,35.2,29.89,SW,225,2.7,-999.0,28,-99.99,,,0.00,Acu-Link.com,2013-10-12 23:03:00,
2013-10-12 17:18:00,69.3,34.8,29.88,SSE,157,4.7,-999.0,28,-99.99,,,0.00,Acu-Link.com,2013-10-12 23:18:00,
2013-10-12 17:34:00,69.3,34.8,29.89,South,180,1.6,-999.0,28,-99.99,,,0.00,Acu-Link.com,2013-10-12 23:34:00,
2013-10-12 17:49:00,68.5,35.9,29.89,SSW,202,4.3,-999.0,30,-99.99,,,0.00,Acu-Link.com,2013-10-12 23:49:00,
2013-10-12 18:04:00,67.8,36.1,29.89,SE,135,1.6,-999.0,31,-99.99,,,0.00,Acu-Link.com,2013-10-13 00:04:00,
2013-10-12 18:19:00,67.1,36.3,29.89,SSE,157,2.2,-999.0,32,-99.99,,,0.00,Acu-Link.com,2013-10-13 00:19:00,
2013-10-12 18:34:00,65.3,36.2,29.89,SSE,157,1.6,-999.0,34,-99.99,,,0.00,Acu-Link.com,2013-10-13 00:34:00,
2013-10-12 18:50:00,64.0,36.5,29.89,SSW,202,0.0,-999.0,36,-99.99,,,0.00,Acu-Link.com,2013-10-13 00:50:00,
2013-10-12 19:05:00,62.1,36.8,29.90,SSW,202,0.0,-999.0,39,-99.99,,,0.00,Acu-Link.com,2013-10-13 01:05:00,
2013-10-12 19:20:00,60.4,37.2,29.90,ESE,112,0.0,-999.0,42,-99.99,,,0.00,Acu-Link.com,2013-10-13 01:20:00,
2013-10-12 19:35:00,59.2,36.7,29.91,SSE,157,0.0,-999.0,43,-99.99,,,0.00,Acu-Link.com,2013-10-13 01:35:00,
2013-10-12 19:51:00,59.5,38.2,29.91,SSE,157,2.7,-999.0,45,-99.99,,,0.00,Acu-Link.com,2013-10-13 01:51:00,
2013-10-12 20:06:00,58.3,38.1,29.92,South,180,0.0,-999.0,47,-99.99,,,0.00,Acu-Link.com,2013-10-13 02:06:00,
2013-10-12 20:21:00,58.1,38.0,29.93,South,180,0.0,-999.0,47,-99.99,,,0.00,Acu-Link.com,2013-10-13 02:21:00,
2013-10-12 20:36:00,56.7,36.1,29.93,West,270,0.0,-999.0,46,-99.99,,,0.00,Acu-Link.com,2013-10-13 02:36:00,
2013-10-12 20:51:00,57.6,36.4,29.93,South,180,4.3,-999.0,45,-99.99,,,0.00,Acu-Link.com,2013-10-13 02:51:00,
2013-10-12 21:07:00,58.8,36.4,29.94,SSW,202,2.2,-999.0,43,-99.99,,,0.00,Acu-Link.com,2013-10-13 03:07:00,
2013-10-12 21:22:00,58.1,36.3,29.94,South,180,0.0,-999.0,44,-99.99,,,0.00,Acu-Link.com,2013-10-13 03:22:00,
2013-10-12 21:37:00,57.4,36.8,29.94,SSW,202,0.0,-999.0,46,-99.99,,,0.00,Acu-Link.com,2013-10-13 03:37:00,
2013-10-12 21:52:00,56.3,36.9,29.94,ESE,112,1.1,-999.0,48,-99.99,,,0.00,Acu-Link.com,2013-10-13 03:52:00,
2013-10-12 22:07:00,56.7,36.7,29.95,WSW,247,2.2,-999.0,47,-99.99,,,0.00,Acu-Link.com,2013-10-13 04:07:00,
2013-10-12 22:23:00,56.8,36.8,29.96,SSW,202,1.6,-999.0,47,-99.99,,,0.00,Acu-Link.com,2013-10-13 04:23:00,
2013-10-12 22:38:00,55.4,36.0,29.95,West,270,0.0,-999.0,48,-99.99,,,0.00,Acu-Link.com,2013-10-13 04:38:00,
2013-10-12 22:53:00,54.5,36.2,29.95,West,270,0.0,-999.0,50,-99.99,,,0.00,Acu-Link.com,2013-10-13 04:53:00,
2013-10-12 23:09:00,53.6,36.4,29.95,ESE,112,0.0,-999.0,52,-99.99,,,0.00,Acu-Link.com,2013-10-13 05:09:00,
2013-10-12 23:24:00,52.9,36.7,29.95,WSW,247,0.0,-999.0,54,-99.99,,,0.00,Acu-Link.com,2013-10-13 05:24:00,
2013-10-12 23:41:00,52.2,36.5,29.95,WSW,247,2.2,-999.0,55,-99.99,,,0.00,Acu-Link.com,2013-10-13 05:41:00,
2013-10-12 23:56:00,52.2,36.9,29.95,West,270,2.7,-999.0,56,-99.99,,,0.00,Acu-Link.com,2013-10-13 05:56:00,